sensor_id;sensor_type;location;lat;lon;timestamp;temperature;humidity
22288;DHT22;11312;51.464;6.968;2022-07-10T00:00:28;15.10;99.90
22288;DHT22;11312;51.464;6.968;2022-07-10T00:02:54;15.10;99.90
22288;DHT22;11312;51.464;6.968;2022-07-10T00:05:20;15.20;99.90
22288;DHT22;11312;51.464;6.968;2022-07-10T00:07:47;15.20;99.90
22288;DHT22;11312;51.464;6.968;2022-07-10T00:10:13;15.30;99.90
22288;DHT22;11312;51.464;6.968;2022-07-10T00:12:38;15.40;99.90
22288;DHT22;11312;51.464;6.968;2022-07-10T00:15:05;15.40;99.90
22288;DHT22;11312;51.464;6.968;2022-07-10T00:17:31;15.40;99.90
22288;DHT22;11312;51.464;6.968;2022-07-10T00:19:57;15.30;99.90
22288;DHT22;11312;51.464;6.968;2022-07-10T00:22:23;15.30;99.90
22288;DHT22;11312;51.464;6.968;2022-07-10T00:24:48;15.40;99.90
22288;DHT22;11312;51.464;6.968;2022-07-10T00:27:16;15.40;99.90
22288;DHT22;11312;51.464;6.968;2022-07-10T00:29:42;15.40;99.90
22288;DHT22;11312;51.464;6.968;2022-07-10T00:32:08;15.40;99.90
22288;DHT22;11312;51.464;6.968;2022-07-10T00:34:34;15.50;99.90
22288;DHT22;11312;51.464;6.968;2022-07-10T00:37:01;15.40;99.90
22288;DHT22;11312;51.464;6.968;2022-07-10T00:39:27;15.60;99.90
22288;DHT22;11312;51.464;6.968;2022-07-10T00:41:53;15.60;99.90
22288;DHT22;11312;51.464;6.968;2022-07-10T00:44:18;15.60;99.90
22288;DHT22;11312;51.464;6.968;2022-07-10T00:46:44;15.70;99.90
22288;DHT22;11312;51.464;6.968;2022-07-10T00:49:10;15.70;99.90
22288;DHT22;11312;51.464;6.968;2022-07-10T00:51:37;15.70;99.90
22288;DHT22;11312;51.464;6.968;2022-07-10T00:54:04;15.60;99.90
22288;DHT22;11312;51.464;6.968;2022-07-10T00:56:30;15.50;99.90
22288;DHT22;11312;51.464;6.968;2022-07-10T00:58:55;15.60;99.90
22288;DHT22;11312;51.464;6.968;2022-07-10T01:01:22;15.60;99.90
22288;DHT22;11312;51.464;6.968;2022-07-10T01:03:49;15.60;99.90
22288;DHT22;11312;51.464;6.968;2022-07-10T01:06:15;15.50;99.90
22288;DHT22;11312;51.464;6.968;2022-07-10T01:08:42;15.60;99.90
22288;DHT22;11312;51.464;6.968;2022-07-10T01:11:11;15.60;99.90
22288;DHT22;11312;51.464;6.968;2022-07-10T01:13:37;15.60;99.90
22288;DHT22;11312;51.464;6.968;2022-07-10T01:16:03;15.50;99.90
22288;DHT22;11312;51.464;6.968;2022-07-10T01:18:29;15.60;99.90
22288;DHT22;11312;51.464;6.968;2022-07-10T01:20:57;15.50;99.90
22288;DHT22;11312;51.464;6.968;2022-07-10T01:23:23;15.50;99.90
22288;DHT22;11312;51.464;6.968;2022-07-10T01:25:49;15.50;99.90
22288;DHT22;11312;51.464;6.968;2022-07-10T01:28:20;15.50;99.90
22288;DHT22;11312;51.464;6.968;2022-07-10T01:30:47;15.50;99.90
22288;DHT22;11312;51.464;6.968;2022-07-10T01:33:13;15.60;99.90
22288;DHT22;11312;51.464;6.968;2022-07-10T01:35:39;15.50;99.90
22288;DHT22;11312;51.464;6.968;2022-07-10T01:38:04;15.50;99.90
22288;DHT22;11312;51.464;6.968;2022-07-10T01:40:30;15.50;99.90
22288;DHT22;11312;51.464;6.968;2022-07-10T01:42:56;15.50;99.90
22288;DHT22;11312;51.464;6.968;2022-07-10T01:45:22;15.40;99.90
22288;DHT22;11312;51.464;6.968;2022-07-10T01:47:48;15.50;99.90
22288;DHT22;11312;51.464;6.968;2022-07-10T01:50:13;15.40;99.90
22288;DHT22;11312;51.464;6.968;2022-07-10T01:52:39;15.30;99.90
22288;DHT22;11312;51.464;6.968;2022-07-10T01:55:06;15.50;99.90
22288;DHT22;11312;51.464;6.968;2022-07-10T01:57:32;15.40;99.90
22288;DHT22;11312;51.464;6.968;2022-07-10T01:59:58;15.40;99.90
22288;DHT22;11312;51.464;6.968;2022-07-10T02:02:23;15.40;99.90
22288;DHT22;11312;51.464;6.968;2022-07-10T02:04:49;15.30;99.90
22288;DHT22;11312;51.464;6.968;2022-07-10T02:07:17;15.30;99.90
22288;DHT22;11312;51.464;6.968;2022-07-10T02:09:44;15.40;99.90
22288;DHT22;11312;51.464;6.968;2022-07-10T02:12:11;15.30;99.90
22288;DHT22;11312;51.464;6.968;2022-07-10T02:14:38;15.30;99.90
22288;DHT22;11312;51.464;6.968;2022-07-10T02:17:05;15.30;99.90
22288;DHT22;11312;51.464;6.968;2022-07-10T02:19:31;15.10;99.90
22288;DHT22;11312;51.464;6.968;2022-07-10T02:21:57;15.00;99.90
22288;DHT22;11312;51.464;6.968;2022-07-10T02:24:22;15.10;99.90
22288;DHT22;11312;51.464;6.968;2022-07-10T02:26:48;15.10;99.90
22288;DHT22;11312;51.464;6.968;2022-07-10T02:29:14;15.00;99.90
22288;DHT22;11312;51.464;6.968;2022-07-10T02:31:40;14.90;99.90
22288;DHT22;11312;51.464;6.968;2022-07-10T02:34:09;14.80;99.90
22288;DHT22;11312;51.464;6.968;2022-07-10T02:36:35;14.90;99.90
22288;DHT22;11312;51.464;6.968;2022-07-10T02:39:02;14.90;99.90
22288;DHT22;11312;51.464;6.968;2022-07-10T02:41:28;14.90;99.90
22288;DHT22;11312;51.464;6.968;2022-07-10T02:43:53;14.90;99.90
22288;DHT22;11312;51.464;6.968;2022-07-10T02:46:19;14.90;99.90
22288;DHT22;11312;51.464;6.968;2022-07-10T02:48:44;14.90;99.90
22288;DHT22;11312;51.464;6.968;2022-07-10T02:51:10;14.80;99.90
22288;DHT22;11312;51.464;6.968;2022-07-10T02:53:36;14.70;99.90
22288;DHT22;11312;51.464;6.968;2022-07-10T02:56:01;14.70;99.90
22288;DHT22;11312;51.464;6.968;2022-07-10T02:58:27;14.70;99.90
22288;DHT22;11312;51.464;6.968;2022-07-10T03:00:53;14.60;99.90
22288;DHT22;11312;51.464;6.968;2022-07-10T03:03:18;14.70;99.90
22288;DHT22;11312;51.464;6.968;2022-07-10T03:05:44;14.70;99.90
22288;DHT22;11312;51.464;6.968;2022-07-10T03:08:11;14.70;99.90
22288;DHT22;11312;51.464;6.968;2022-07-10T03:10:36;14.60;99.90
22288;DHT22;11312;51.464;6.968;2022-07-10T03:13:02;14.50;99.90
22288;DHT22;11312;51.464;6.968;2022-07-10T03:15:28;14.60;99.90
22288;DHT22;11312;51.464;6.968;2022-07-10T03:17:53;14.60;99.90
22288;DHT22;11312;51.464;6.968;2022-07-10T03:20:19;14.40;99.90
22288;DHT22;11312;51.464;6.968;2022-07-10T03:22:45;14.50;99.90
22288;DHT22;11312;51.464;6.968;2022-07-10T03:25:10;14.50;99.90
22288;DHT22;11312;51.464;6.968;2022-07-10T03:27:36;14.40;99.90
22288;DHT22;11312;51.464;6.968;2022-07-10T03:30:02;14.40;99.90
22288;DHT22;11312;51.464;6.968;2022-07-10T03:32:28;14.30;99.90
22288;DHT22;11312;51.464;6.968;2022-07-10T03:34:53;14.40;99.90
22288;DHT22;11312;51.464;6.968;2022-07-10T03:37:19;14.30;99.90
22288;DHT22;11312;51.464;6.968;2022-07-10T03:39:45;14.30;99.90
22288;DHT22;11312;51.464;6.968;2022-07-10T03:42:10;14.40;99.90
22288;DHT22;11312;51.464;6.968;2022-07-10T03:44:36;14.30;99.90
22288;DHT22;11312;51.464;6.968;2022-07-10T03:47:02;14.20;99.90
22288;DHT22;11312;51.464;6.968;2022-07-10T03:49:27;14.30;99.90
22288;DHT22;11312;51.464;6.968;2022-07-10T03:51:53;14.20;99.90
22288;DHT22;11312;51.464;6.968;2022-07-10T03:54:19;14.30;99.90
22288;DHT22;11312;51.464;6.968;2022-07-10T03:56:44;14.20;99.90
22288;DHT22;11312;51.464;6.968;2022-07-10T03:59:28;14.20;99.90
22288;DHT22;11312;51.464;6.968;2022-07-10T04:01:54;14.20;99.90
22288;DHT22;11312;51.464;6.968;2022-07-10T04:04:20;14.20;99.90
22288;DHT22;11312;51.464;6.968;2022-07-10T04:06:46;14.20;99.90
22288;DHT22;11312;51.464;6.968;2022-07-10T04:09:11;14.20;99.90
22288;DHT22;11312;51.464;6.968;2022-07-10T04:11:37;14.20;99.90
22288;DHT22;11312;51.464;6.968;2022-07-10T04:14:03;14.20;99.90
22288;DHT22;11312;51.464;6.968;2022-07-10T04:16:29;14.30;99.90
22288;DHT22;11312;51.464;6.968;2022-07-10T04:18:54;14.40;99.90
22288;DHT22;11312;51.464;6.968;2022-07-10T04:21:20;14.50;99.90
22288;DHT22;11312;51.464;6.968;2022-07-10T04:23:45;14.50;99.90
22288;DHT22;11312;51.464;6.968;2022-07-10T04:26:11;14.30;99.90
22288;DHT22;11312;51.464;6.968;2022-07-10T04:28:37;14.40;99.90
22288;DHT22;11312;51.464;6.968;2022-07-10T04:31:02;14.40;99.90
22288;DHT22;11312;51.464;6.968;2022-07-10T04:33:28;14.30;99.90
22288;DHT22;11312;51.464;6.968;2022-07-10T04:35:54;14.40;99.90
22288;DHT22;11312;51.464;6.968;2022-07-10T04:38:19;14.40;99.90
22288;DHT22;11312;51.464;6.968;2022-07-10T04:40:45;14.40;99.90
22288;DHT22;11312;51.464;6.968;2022-07-10T04:43:11;14.40;99.90
22288;DHT22;11312;51.464;6.968;2022-07-10T04:45:36;14.40;99.90
22288;DHT22;11312;51.464;6.968;2022-07-10T04:48:05;14.40;99.90
22288;DHT22;11312;51.464;6.968;2022-07-10T04:50:31;14.40;99.90
22288;DHT22;11312;51.464;6.968;2022-07-10T04:52:57;14.40;99.90
22288;DHT22;11312;51.464;6.968;2022-07-10T04:55:23;14.50;99.90
22288;DHT22;11312;51.464;6.968;2022-07-10T04:57:48;14.50;99.90
22288;DHT22;11312;51.464;6.968;2022-07-10T05:00:14;14.40;99.90
22288;DHT22;11312;51.464;6.968;2022-07-10T05:02:40;14.50;99.90
22288;DHT22;11312;51.464;6.968;2022-07-10T05:05:06;14.60;99.90
22288;DHT22;11312;51.464;6.968;2022-07-10T05:07:32;14.60;99.90
22288;DHT22;11312;51.464;6.968;2022-07-10T05:09:57;14.60;99.90
22288;DHT22;11312;51.464;6.968;2022-07-10T05:12:23;14.70;99.90
22288;DHT22;11312;51.464;6.968;2022-07-10T05:14:49;14.70;99.90
22288;DHT22;11312;51.464;6.968;2022-07-10T05:17:14;14.80;99.90
22288;DHT22;11312;51.464;6.968;2022-07-10T05:19:40;14.80;99.90
22288;DHT22;11312;51.464;6.968;2022-07-10T05:22:05;14.80;99.90
22288;DHT22;11312;51.464;6.968;2022-07-10T05:24:31;14.90;99.90
22288;DHT22;11312;51.464;6.968;2022-07-10T05:26:57;15.10;99.90
22288;DHT22;11312;51.464;6.968;2022-07-10T05:29:22;15.40;99.90
22288;DHT22;11312;51.464;6.968;2022-07-10T05:31:48;15.70;99.90
22288;DHT22;11312;51.464;6.968;2022-07-10T05:34:14;15.90;99.90
22288;DHT22;11312;51.464;6.968;2022-07-10T05:36:39;16.00;99.90
22288;DHT22;11312;51.464;6.968;2022-07-10T05:39:05;16.00;99.90
22288;DHT22;11312;51.464;6.968;2022-07-10T05:41:31;15.80;99.90
22288;DHT22;11312;51.464;6.968;2022-07-10T05:43:59;15.80;99.90
22288;DHT22;11312;51.464;6.968;2022-07-10T05:46:25;15.90;99.90
22288;DHT22;11312;51.464;6.968;2022-07-10T05:48:50;16.00;99.90
22288;DHT22;11312;51.464;6.968;2022-07-10T05:51:16;16.10;99.90
22288;DHT22;11312;51.464;6.968;2022-07-10T05:53:42;16.20;99.90
22288;DHT22;11312;51.464;6.968;2022-07-10T05:56:07;16.20;99.90
22288;DHT22;11312;51.464;6.968;2022-07-10T05:58:33;16.10;99.90
22288;DHT22;11312;51.464;6.968;2022-07-10T06:00:59;16.20;99.90
22288;DHT22;11312;51.464;6.968;2022-07-10T06:03:24;16.20;99.90
22288;DHT22;11312;51.464;6.968;2022-07-10T06:05:50;16.10;99.90
22288;DHT22;11312;51.464;6.968;2022-07-10T06:08:16;16.00;99.90
22288;DHT22;11312;51.464;6.968;2022-07-10T06:10:41;15.80;99.90
22288;DHT22;11312;51.464;6.968;2022-07-10T06:13:10;15.70;99.90
22288;DHT22;11312;51.464;6.968;2022-07-10T06:15:36;15.70;99.90
22288;DHT22;11312;51.464;6.968;2022-07-10T06:18:02;15.70;99.90
22288;DHT22;11312;51.464;6.968;2022-07-10T06:20:28;15.60;99.90
22288;DHT22;11312;51.464;6.968;2022-07-10T06:22:54;15.60;99.90
22288;DHT22;11312;51.464;6.968;2022-07-10T06:25:20;15.60;99.90
22288;DHT22;11312;51.464;6.968;2022-07-10T06:27:46;15.60;99.90
22288;DHT22;11312;51.464;6.968;2022-07-10T06:30:11;15.60;99.90
22288;DHT22;11312;51.464;6.968;2022-07-10T06:32:38;15.60;99.90
22288;DHT22;11312;51.464;6.968;2022-07-10T06:35:04;15.60;99.90
22288;DHT22;11312;51.464;6.968;2022-07-10T06:37:32;15.60;99.90
22288;DHT22;11312;51.464;6.968;2022-07-10T06:39:58;15.60;99.90
22288;DHT22;11312;51.464;6.968;2022-07-10T06:42:24;15.70;99.90
22288;DHT22;11312;51.464;6.968;2022-07-10T06:44:49;15.70;99.90
22288;DHT22;11312;51.464;6.968;2022-07-10T06:47:17;15.70;99.90
22288;DHT22;11312;51.464;6.968;2022-07-10T06:50:03;15.70;99.90
22288;DHT22;11312;51.464;6.968;2022-07-10T06:52:34;15.70;99.90
22288;DHT22;11312;51.464;6.968;2022-07-10T06:55:03;15.80;99.90
22288;DHT22;11312;51.464;6.968;2022-07-10T06:57:29;15.80;99.90
22288;DHT22;11312;51.464;6.968;2022-07-10T06:59:55;15.90;99.90
22288;DHT22;11312;51.464;6.968;2022-07-10T07:02:22;16.00;99.90
22288;DHT22;11312;51.464;6.968;2022-07-10T07:04:47;16.10;99.90
22288;DHT22;11312;51.464;6.968;2022-07-10T07:07:14;16.00;99.90
22288;DHT22;11312;51.464;6.968;2022-07-10T07:09:40;16.10;99.90
22288;DHT22;11312;51.464;6.968;2022-07-10T07:12:08;16.10;99.90
22288;DHT22;11312;51.464;6.968;2022-07-10T07:14:34;16.10;99.90
22288;DHT22;11312;51.464;6.968;2022-07-10T07:17:00;16.10;99.90
22288;DHT22;11312;51.464;6.968;2022-07-10T07:19:30;16.00;99.90
22288;DHT22;11312;51.464;6.968;2022-07-10T07:22:14;16.10;99.90
22288;DHT22;11312;51.464;6.968;2022-07-10T07:24:58;16.10;99.90
22288;DHT22;11312;51.464;6.968;2022-07-10T07:27:24;16.10;99.90
22288;DHT22;11312;51.464;6.968;2022-07-10T07:29:49;16.00;99.90
22288;DHT22;11312;51.464;6.968;2022-07-10T07:32:15;16.10;99.90
22288;DHT22;11312;51.464;6.968;2022-07-10T07:34:40;16.00;99.90
22288;DHT22;11312;51.464;6.968;2022-07-10T07:37:06;16.10;99.90
22288;DHT22;11312;51.464;6.968;2022-07-10T07:39:31;16.00;99.90
22288;DHT22;11312;51.464;6.968;2022-07-10T07:41:59;16.20;99.90
22288;DHT22;11312;51.464;6.968;2022-07-10T07:44:24;16.10;99.90
22288;DHT22;11312;51.464;6.968;2022-07-10T07:46:50;16.10;99.90
22288;DHT22;11312;51.464;6.968;2022-07-10T07:49:15;16.20;99.90
22288;DHT22;11312;51.464;6.968;2022-07-10T07:51:41;16.40;99.90
22288;DHT22;11312;51.464;6.968;2022-07-10T07:54:07;16.50;99.90
22288;DHT22;11312;51.464;6.968;2022-07-10T07:56:32;16.50;99.90
22288;DHT22;11312;51.464;6.968;2022-07-10T07:58:58;16.20;99.90
22288;DHT22;11312;51.464;6.968;2022-07-10T08:01:24;16.20;99.90
22288;DHT22;11312;51.464;6.968;2022-07-10T08:03:50;16.20;99.90
22288;DHT22;11312;51.464;6.968;2022-07-10T08:06:16;15.90;99.90
22288;DHT22;11312;51.464;6.968;2022-07-10T08:08:41;16.00;99.90
22288;DHT22;11312;51.464;6.968;2022-07-10T08:11:07;15.90;99.90
22288;DHT22;11312;51.464;6.968;2022-07-10T08:13:33;15.90;99.90
22288;DHT22;11312;51.464;6.968;2022-07-10T08:15:59;16.00;99.90
22288;DHT22;11312;51.464;6.968;2022-07-10T08:18:25;16.00;99.90
22288;DHT22;11312;51.464;6.968;2022-07-10T08:20:51;15.90;99.90
22288;DHT22;11312;51.464;6.968;2022-07-10T08:23:16;15.70;99.90
22288;DHT22;11312;51.464;6.968;2022-07-10T08:25:42;15.90;99.90
22288;DHT22;11312;51.464;6.968;2022-07-10T08:28:07;16.00;99.90
22288;DHT22;11312;51.464;6.968;2022-07-10T08:30:35;16.00;99.90
22288;DHT22;11312;51.464;6.968;2022-07-10T08:33:01;16.00;99.90
22288;DHT22;11312;51.464;6.968;2022-07-10T08:35:26;15.90;99.90
22288;DHT22;11312;51.464;6.968;2022-07-10T08:37:52;16.00;99.90
22288;DHT22;11312;51.464;6.968;2022-07-10T08:40:21;16.00;99.90
22288;DHT22;11312;51.464;6.968;2022-07-10T08:42:47;16.00;99.90
22288;DHT22;11312;51.464;6.968;2022-07-10T08:45:13;16.20;99.90
22288;DHT22;11312;51.464;6.968;2022-07-10T08:47:40;16.40;99.90
22288;DHT22;11312;51.464;6.968;2022-07-10T08:50:23;16.40;99.90
22288;DHT22;11312;51.464;6.968;2022-07-10T08:53:04;16.70;99.90
22288;DHT22;11312;51.464;6.968;2022-07-10T08:55:31;17.10;99.90
22288;DHT22;11312;51.464;6.968;2022-07-10T08:57:58;17.40;99.90
22288;DHT22;11312;51.464;6.968;2022-07-10T09:00:24;17.20;99.90
22288;DHT22;11312;51.464;6.968;2022-07-10T09:02:50;17.50;99.90
22288;DHT22;11312;51.464;6.968;2022-07-10T09:05:18;17.30;99.90
22288;DHT22;11312;51.464;6.968;2022-07-10T09:07:44;17.30;99.90
22288;DHT22;11312;51.464;6.968;2022-07-10T09:10:11;17.10;99.90
22288;DHT22;11312;51.464;6.968;2022-07-10T09:12:59;17.00;99.90
22288;DHT22;11312;51.464;6.968;2022-07-10T09:15:29;17.10;99.90
22288;DHT22;11312;51.464;6.968;2022-07-10T09:17:58;17.30;99.90
22288;DHT22;11312;51.464;6.968;2022-07-10T09:20:36;17.50;99.90
22288;DHT22;11312;51.464;6.968;2022-07-10T09:23:21;17.60;99.90
22288;DHT22;11312;51.464;6.968;2022-07-10T09:25:48;17.60;99.90
22288;DHT22;11312;51.464;6.968;2022-07-10T09:28:17;17.50;99.90
22288;DHT22;11312;51.464;6.968;2022-07-10T09:30:43;17.50;99.90
22288;DHT22;11312;51.464;6.968;2022-07-10T09:36:10;17.50;99.90
22288;DHT22;11312;51.464;6.968;2022-07-10T09:41:15;17.30;99.90
22288;DHT22;11312;51.464;6.968;2022-07-10T09:46:13;17.10;99.90
22288;DHT22;11312;51.464;6.968;2022-07-10T09:48:38;17.40;99.90
22288;DHT22;11312;51.464;6.968;2022-07-10T09:51:07;17.50;99.90
22288;DHT22;11312;51.464;6.968;2022-07-10T09:53:43;17.50;99.90
22288;DHT22;11312;51.464;6.968;2022-07-10T09:56:11;17.40;99.90
22288;DHT22;11312;51.464;6.968;2022-07-10T09:58:37;17.20;99.90
22288;DHT22;11312;51.464;6.968;2022-07-10T10:01:05;17.00;99.90
22288;DHT22;11312;51.464;6.968;2022-07-10T10:03:37;16.70;99.90
22288;DHT22;11312;51.464;6.968;2022-07-10T10:06:11;16.50;99.90
22288;DHT22;11312;51.464;6.968;2022-07-10T10:09:04;16.60;99.90
22288;DHT22;11312;51.464;6.968;2022-07-10T10:11:35;16.60;99.90
22288;DHT22;11312;51.464;6.968;2022-07-10T10:14:01;16.50;99.90
22288;DHT22;11312;51.464;6.968;2022-07-10T10:16:28;16.30;99.90
22288;DHT22;11312;51.464;6.968;2022-07-10T10:18:55;16.70;99.90
22288;DHT22;11312;51.464;6.968;2022-07-10T10:21:39;16.70;99.90
22288;DHT22;11312;51.464;6.968;2022-07-10T10:24:06;17.10;99.90
22288;DHT22;11312;51.464;6.968;2022-07-10T10:26:34;17.30;99.90
22288;DHT22;11312;51.464;6.968;2022-07-10T10:29:02;17.00;99.90
22288;DHT22;11312;51.464;6.968;2022-07-10T10:31:29;16.60;99.90
22288;DHT22;11312;51.464;6.968;2022-07-10T10:33:56;16.20;99.90
22288;DHT22;11312;51.464;6.968;2022-07-10T10:36:46;16.30;99.90
22288;DHT22;11312;51.464;6.968;2022-07-10T10:39:18;16.50;99.90
22288;DHT22;11312;51.464;6.968;2022-07-10T10:41:54;16.70;99.90
22288;DHT22;11312;51.464;6.968;2022-07-10T10:44:27;16.80;99.90
22288;DHT22;11312;51.464;6.968;2022-07-10T10:47:02;16.60;99.90
22288;DHT22;11312;51.464;6.968;2022-07-10T10:49:52;16.50;99.90
22288;DHT22;11312;51.464;6.968;2022-07-10T10:52:19;16.50;99.90
22288;DHT22;11312;51.464;6.968;2022-07-10T10:57:24;17.20;99.90
22288;DHT22;11312;51.464;6.968;2022-07-10T11:00:06;17.70;99.90
22288;DHT22;11312;51.464;6.968;2022-07-10T11:02:34;17.80;99.90
22288;DHT22;11312;51.464;6.968;2022-07-10T11:08:03;18.20;99.90
22288;DHT22;11312;51.464;6.968;2022-07-10T11:10:35;17.90;99.90
22288;DHT22;11312;51.464;6.968;2022-07-10T11:13:06;17.70;99.90
22288;DHT22;11312;51.464;6.968;2022-07-10T11:18:14;17.60;99.90
22288;DHT22;11312;51.464;6.968;2022-07-10T11:20:47;17.90;99.90
22288;DHT22;11312;51.464;6.968;2022-07-10T11:26:06;19.00;99.90
22288;DHT22;11312;51.464;6.968;2022-07-10T11:28:57;19.30;99.90
22288;DHT22;11312;51.464;6.968;2022-07-10T11:31:23;19.70;99.90
22288;DHT22;11312;51.464;6.968;2022-07-10T11:33:51;19.60;99.90
22288;DHT22;11312;51.464;6.968;2022-07-10T11:36:19;19.60;99.90
22288;DHT22;11312;51.464;6.968;2022-07-10T11:38:47;19.20;99.90
22288;DHT22;11312;51.464;6.968;2022-07-10T11:41:20;18.60;99.90
22288;DHT22;11312;51.464;6.968;2022-07-10T11:43:59;18.40;99.90
22288;DHT22;11312;51.464;6.968;2022-07-10T11:46:30;18.20;99.90
22288;DHT22;11312;51.464;6.968;2022-07-10T11:48:56;18.20;99.90
22288;DHT22;11312;51.464;6.968;2022-07-10T11:51:28;18.50;99.90
22288;DHT22;11312;51.464;6.968;2022-07-10T11:54:03;19.00;99.90
22288;DHT22;11312;51.464;6.968;2022-07-10T11:56:40;19.30;99.90
22288;DHT22;11312;51.464;6.968;2022-07-10T11:59:12;19.00;99.90
22288;DHT22;11312;51.464;6.968;2022-07-10T12:01:52;18.50;99.90
22288;DHT22;11312;51.464;6.968;2022-07-10T12:04:19;18.20;99.90
22288;DHT22;11312;51.464;6.968;2022-07-10T12:06:49;17.90;99.90
22288;DHT22;11312;51.464;6.968;2022-07-10T12:09:17;17.80;99.90
22288;DHT22;11312;51.464;6.968;2022-07-10T12:11:43;18.20;99.90
22288;DHT22;11312;51.464;6.968;2022-07-10T12:14:17;19.00;99.90
22288;DHT22;11312;51.464;6.968;2022-07-10T12:16:47;20.00;99.90
22288;DHT22;11312;51.464;6.968;2022-07-10T12:19:15;20.50;99.90
22288;DHT22;11312;51.464;6.968;2022-07-10T12:21:43;20.10;99.90
22288;DHT22;11312;51.464;6.968;2022-07-10T12:24:10;19.60;99.90
22288;DHT22;11312;51.464;6.968;2022-07-10T12:26:39;19.20;99.90
22288;DHT22;11312;51.464;6.968;2022-07-10T12:29:05;18.80;99.90
22288;DHT22;11312;51.464;6.968;2022-07-10T12:31:34;18.30;99.90
22288;DHT22;11312;51.464;6.968;2022-07-10T12:34:04;18.10;99.90
22288;DHT22;11312;51.464;6.968;2022-07-10T12:36:47;17.90;99.90
22288;DHT22;11312;51.464;6.968;2022-07-10T12:39:14;17.70;99.90
22288;DHT22;11312;51.464;6.968;2022-07-10T12:44:43;17.80;99.90
22288;DHT22;11312;51.464;6.968;2022-07-10T12:47:17;18.20;99.90
22288;DHT22;11312;51.464;6.968;2022-07-10T12:49:57;18.80;99.90
22288;DHT22;11312;51.464;6.968;2022-07-10T12:52:28;19.70;1.00
22288;DHT22;11312;51.464;6.968;2022-07-10T12:55:19;20.80;99.90
22288;DHT22;11312;51.464;6.968;2022-07-10T12:57:59;21.80;1.00
22288;DHT22;11312;51.464;6.968;2022-07-10T13:00:35;22.20;8.00
22288;DHT22;11312;51.464;6.968;2022-07-10T13:03:09;22.30;99.90
22288;DHT22;11312;51.464;6.968;2022-07-10T13:05:39;21.70;99.90
22288;DHT22;11312;51.464;6.968;2022-07-10T13:08:10;20.90;1.00
22288;DHT22;11312;51.464;6.968;2022-07-10T13:10:39;20.70;99.90
22288;DHT22;11312;51.464;6.968;2022-07-10T13:13:05;20.40;99.90
22288;DHT22;11312;51.464;6.968;2022-07-10T13:15:31;20.40;1.00
22288;DHT22;11312;51.464;6.968;2022-07-10T13:17:57;20.50;1.00
22288;DHT22;11312;51.464;6.968;2022-07-10T13:20:23;20.60;1.00
22288;DHT22;11312;51.464;6.968;2022-07-10T13:22:49;20.60;1.00
22288;DHT22;11312;51.464;6.968;2022-07-10T13:25:15;20.50;1.00
22288;DHT22;11312;51.464;6.968;2022-07-10T13:27:40;20.60;99.90
22288;DHT22;11312;51.464;6.968;2022-07-10T13:30:08;20.50;1.00
22288;DHT22;11312;51.464;6.968;2022-07-10T13:32:33;20.00;1.00
22288;DHT22;11312;51.464;6.968;2022-07-10T13:34:59;19.80;1.00
22288;DHT22;11312;51.464;6.968;2022-07-10T13:37:25;19.70;1.40
22288;DHT22;11312;51.464;6.968;2022-07-10T13:39:51;19.70;1.00
22288;DHT22;11312;51.464;6.968;2022-07-10T13:42:16;19.60;1.00
22288;DHT22;11312;51.464;6.968;2022-07-10T13:44:42;19.40;1.00
22288;DHT22;11312;51.464;6.968;2022-07-10T13:47:08;19.10;22.60
22288;DHT22;11312;51.464;6.968;2022-07-10T13:49:34;19.10;53.10
22288;DHT22;11312;51.464;6.968;2022-07-10T13:52:00;19.20;7.00
22288;DHT22;11312;51.464;6.968;2022-07-10T13:54:25;19.20;42.40
22288;DHT22;11312;51.464;6.968;2022-07-10T13:56:51;19.10;99.90
22288;DHT22;11312;51.464;6.968;2022-07-10T13:59:16;19.20;99.90
22288;DHT22;11312;51.464;6.968;2022-07-10T14:01:42;19.20;99.90
22288;DHT22;11312;51.464;6.968;2022-07-10T14:04:08;19.20;99.90
22288;DHT22;11312;51.464;6.968;2022-07-10T14:06:33;19.00;99.90
22288;DHT22;11312;51.464;6.968;2022-07-10T14:08:59;18.90;1.00
22288;DHT22;11312;51.464;6.968;2022-07-10T14:11:25;18.90;1.00
22288;DHT22;11312;51.464;6.968;2022-07-10T14:13:51;18.90;99.90
22288;DHT22;11312;51.464;6.968;2022-07-10T14:16:17;18.80;99.90
22288;DHT22;11312;51.464;6.968;2022-07-10T14:18:42;18.70;99.90
22288;DHT22;11312;51.464;6.968;2022-07-10T14:21:10;18.50;99.90
22288;DHT22;11312;51.464;6.968;2022-07-10T14:23:38;18.40;99.90
22288;DHT22;11312;51.464;6.968;2022-07-10T14:26:05;18.30;99.90
22288;DHT22;11312;51.464;6.968;2022-07-10T14:28:31;18.20;99.90
22288;DHT22;11312;51.464;6.968;2022-07-10T14:30:58;18.10;99.90
22288;DHT22;11312;51.464;6.968;2022-07-10T14:33:26;18.20;99.90
22288;DHT22;11312;51.464;6.968;2022-07-10T14:35:52;18.20;99.90
22288;DHT22;11312;51.464;6.968;2022-07-10T14:38:17;18.50;99.90
22288;DHT22;11312;51.464;6.968;2022-07-10T14:40:43;19.00;1.00
22288;DHT22;11312;51.464;6.968;2022-07-10T14:43:09;19.40;1.00
22288;DHT22;11312;51.464;6.968;2022-07-10T14:45:34;19.60;1.00
22288;DHT22;11312;51.464;6.968;2022-07-10T14:48:00;19.80;14.90
22288;DHT22;11312;51.464;6.968;2022-07-10T14:50:26;20.00;1.00
22288;DHT22;11312;51.464;6.968;2022-07-10T14:52:52;20.00;1.00
22288;DHT22;11312;51.464;6.968;2022-07-10T14:55:18;19.80;99.90
22288;DHT22;11312;51.464;6.968;2022-07-10T14:57:43;19.50;99.90
22288;DHT22;11312;51.464;6.968;2022-07-10T15:00:09;19.40;99.90
22288;DHT22;11312;51.464;6.968;2022-07-10T15:02:35;19.20;1.00
22288;DHT22;11312;51.464;6.968;2022-07-10T15:05:01;19.10;1.00
22288;DHT22;11312;51.464;6.968;2022-07-10T15:07:28;19.60;99.90
22288;DHT22;11312;51.464;6.968;2022-07-10T15:09:54;19.80;99.90
22288;DHT22;11312;51.464;6.968;2022-07-10T15:12:20;20.10;49.00
22288;DHT22;11312;51.464;6.968;2022-07-10T15:14:46;20.10;1.00
22288;DHT22;11312;51.464;6.968;2022-07-10T15:17:12;20.20;99.90
22288;DHT22;11312;51.464;6.968;2022-07-10T15:19:38;20.20;99.90
22288;DHT22;11312;51.464;6.968;2022-07-10T15:22:04;20.60;1.00
22288;DHT22;11312;51.464;6.968;2022-07-10T15:24:29;20.70;1.00
22288;DHT22;11312;51.464;6.968;2022-07-10T15:26:55;20.60;99.90
22288;DHT22;11312;51.464;6.968;2022-07-10T15:29:20;20.60;99.90
22288;DHT22;11312;51.464;6.968;2022-07-10T15:31:53;20.80;99.90
22288;DHT22;11312;51.464;6.968;2022-07-10T15:34:19;20.90;1.00
22288;DHT22;11312;51.464;6.968;2022-07-10T15:36:44;20.70;1.00
22288;DHT22;11312;51.464;6.968;2022-07-10T15:39:14;20.40;78.10
22288;DHT22;11312;51.464;6.968;2022-07-10T15:41:40;20.20;1.00
22288;DHT22;11312;51.464;6.968;2022-07-10T15:44:10;20.00;1.00
22288;DHT22;11312;51.464;6.968;2022-07-10T15:46:36;19.80;11.60
22288;DHT22;11312;51.464;6.968;2022-07-10T15:49:02;19.80;1.00
22288;DHT22;11312;51.464;6.968;2022-07-10T15:51:29;20.10;1.00
22288;DHT22;11312;51.464;6.968;2022-07-10T15:53:56;20.30;99.90
22288;DHT22;11312;51.464;6.968;2022-07-10T15:56:22;20.20;1.00